Aeroporto :
LOGIN :

Iscrizione | Disclaimer

   EN    FR    IT 

 










Sommario :    VFR   VFR Marginale   IFR   IFR Intensivo   IFR Molto Intensivo
Visibilità : 
Base nubi : 
>= 8 km
>= 3000ft
5 / 8 km
1000 / 3000 ft
1500m / 5 km
500 / 1000 ft
800 / 1500m
200 / 500 ft
< 800m
< 200 ft
Simboli :   Temporali  Nebbia  Neve Forte  Precipitazioni Forti  Vento > 20 kt
SIGMETs :   Varie  Temporali  Ghiacco  Turbolenza  Onda orograficha  Ceneri Vulcaniche






- Altitudine del aeroporto : 935 ft


EBFS - Florennes

ULTIMO METAR :
  • 181225Z 19011KT 9999 FEW048 27/16 Q1012 BLU BLU

METARs OBSOLETI :
  • 181155Z 16017KT 9999 FEW048 28/16 Q1012 BLU BLU
  • 181125Z 18012KT 9999 FEW048 28/16 Q1012 BLU BLU
  • 181055Z 18012KT 9999 FEW040 27/16 Q1013 BLU BLU
  • 181025Z 19013KT 9999 FEW040 27/15 Q1013 BLU BLU
  • 180955Z 19013KT 9999 FEW040 SCT150 27/16 Q1013 BLU BLU

TAF TAF EBFS
Valido dal 18 a 13 ore il 18 a 22 ore UTC


181141Z 1813/1822 18010KT 9999 SCT150
PROB30
TEMPO 1813/1818 18010G20KT 4000 -SHRA SCT025TCU SCT100



MetMap, La meteo Aeronautica in un colpo d'occhio ! - Copyright ORBIFLY Dicembre 2007 - Disclaimer

ORBIFLY MET'MAP TEAM :

Programmazione e sviluppo : Alexandra Zaïnal
Concezione : Baudouin d'Aumeries
Aiuto per la programmazione : Marc-Olivier Méhu
Supporto tecnico e logistico : Manuel Goepfert
Aiuto per la traduzione : Arnaldo La Scala

Contatto : metmap@orbifly.com




FONTI E CREDITI :

   NOAA